createdAt,value
2022-10-22T00:00:29.851Z,96735.75
2022-10-22T00:02:57.923Z,96728.47
2022-10-22T00:05:26.033Z,96731.97
2022-10-22T00:07:54.046Z,96735.75
2022-10-22T00:10:24.039Z,96738.47
2022-10-22T00:12:52.100Z,96730.38
2022-10-22T00:15:20.090Z,96737.34
2022-10-22T00:17:49.646Z,96726.88
2022-10-22T00:20:17.997Z,96743.88
2022-10-22T00:22:46.032Z,96742.91
2022-10-22T00:25:14.345Z,96737.50
2022-10-22T00:27:43.764Z,96740.69
2022-10-22T00:30:13.040Z,96747.69
2022-10-22T00:32:41.216Z,96747.69
2022-10-22T00:35:09.712Z,96746.88
2022-10-22T00:38:05.632Z,96737.97
2022-10-22T00:40:35.706Z,96744.97
2022-10-22T00:43:05.084Z,96746.41
2022-10-22T00:45:33.095Z,96744.50
2022-10-22T00:48:04.566Z,96743.09
2022-10-22T00:50:35.358Z,96750.56
2022-10-22T00:53:04.573Z,96733.69
2022-10-22T00:55:33.902Z,96746.88
2022-10-22T00:58:02.706Z,96754.66
2022-10-22T01:00:32.217Z,96765.47
2022-10-22T01:03:00.638Z,96776.91
2022-10-22T01:05:29.244Z,96773.44
2022-10-22T01:07:57.403Z,96770.88
2022-10-22T01:10:33.692Z,96774.53
2022-10-22T01:13:11.556Z,96780.72
2022-10-22T01:15:44.916Z,96793.91
2022-10-22T01:18:18.256Z,96794.09
2022-10-22T01:20:58.514Z,96794.09
2022-10-22T01:23:45.298Z,96799.84
2022-10-22T01:26:19.516Z,96795.22
2022-10-22T01:28:56.744Z,96798.22
2022-10-22T01:31:26.464Z,96783.78
2022-10-22T01:33:55.736Z,96767.09
2022-10-22T01:36:24.000Z,96763.63
2022-10-22T01:38:52.939Z,96757.72
2022-10-22T01:41:21.142Z,96767.88
2022-10-22T01:43:50.500Z,96766.44
2022-10-22T01:46:19.663Z,96761.72
2022-10-22T01:48:59.109Z,96759.47
2022-10-22T01:51:34.799Z,96764.84
2022-10-22T01:54:08.764Z,96766.44
2022-10-22T01:56:49.663Z,96767.38
2022-10-22T01:59:25.982Z,96764.38
2022-10-22T02:01:58.503Z,96762.94
2022-10-22T02:04:29.195Z,96761.81
2022-10-22T02:07:00.648Z,96764.50
2022-10-22T02:09:30.088Z,96768.50
2022-10-22T02:12:00.622Z,96779.94
2022-10-22T02:14:31.231Z,96773.94
2022-10-22T02:17:00.592Z,96782.03
2022-10-22T02:19:30.722Z,96781.72
2022-10-22T02:21:59.214Z,96789.19
2022-10-22T02:24:27.488Z,96790.78
2022-10-22T02:27:02.090Z,96787.91
2022-10-22T02:29:36.204Z,96781.72
2022-10-22T02:32:05.468Z,96781.84
2022-10-22T02:34:33.791Z,96795.03
2022-10-22T02:37:03.588Z,96798.53
2022-10-22T02:39:32.609Z,96802.03
2022-10-22T02:42:02.151Z,96812.84
2022-10-22T02:44:31.802Z,96816.31
2022-10-22T02:47:00.418Z,96820.94
2022-10-22T02:49:28.785Z,96827.28
2022-10-22T02:51:57.113Z,96833.47
2022-10-22T02:54:25.107Z,96831.88
2022-10-22T02:56:53.101Z,96823.00
2022-10-22T02:59:21.084Z,96827.44
2022-10-22T03:01:50.434Z,96832.34
2022-10-22T03:04:18.400Z,96830.16
2022-10-22T03:06:48.804Z,96837.59
2022-10-22T03:09:20.141Z,96837.75
2022-10-22T03:11:50.833Z,96834.41
2022-10-22T03:14:18.945Z,96836.97
2022-10-22T03:16:47.673Z,96829.31
2022-10-22T03:19:17.041Z,96830.91
2022-10-22T03:21:47.381Z,96828.69
2022-10-22T03:24:17.684Z,96834.09
2022-10-22T03:26:46.801Z,96814.09
2022-10-22T03:29:16.491Z,96819.50
2022-10-22T03:31:44.586Z,96820.75
2022-10-22T03:34:13.481Z,96805.50
2022-10-22T03:36:43.184Z,96807.56
2022-10-22T03:39:13.882Z,96821.06
2022-10-22T03:41:42.786Z,96822.63
2022-10-22T03:44:10.823Z,96819.50
2022-10-22T03:46:38.801Z,96816.78
2022-10-22T03:49:06.795Z,96822.34
2022-10-22T03:51:35.878Z,96825.19
2022-10-22T03:54:05.744Z,96817.59
2022-10-22T03:56:33.930Z,96835.06
2022-10-22T03:59:02.305Z,96834.75
2022-10-22T04:01:31.447Z,96829.06
2022-10-22T04:04:00.724Z,96832.66
2022-10-22T04:06:30.713Z,96833.78
2022-10-22T04:08:58.796Z,96852.53
2022-10-22T04:11:28.121Z,96860.94
2022-10-22T04:13:56.092Z,96863.97
2022-10-22T04:16:26.317Z,96865.41
2022-10-22T04:18:56.705Z,96867.78
2022-10-22T04:21:24.877Z,96865.88
2022-10-22T04:23:54.054Z,96863.34
2022-10-22T04:26:22.267Z,96871.28
2022-10-22T04:28:52.422Z,96869.06
2022-10-22T04:31:21.751Z,96871.28
2022-10-22T04:33:53.836Z,96869.72
2022-10-22T04:36:21.871Z,96859.34
2022-10-22T04:38:56.106Z,96865.88
2022-10-22T04:41:25.830Z,96853.81
2022-10-22T04:43:56.399Z,96868.13
2022-10-22T04:46:25.095Z,96868.88
2022-10-22T04:48:53.410Z,96875.09
2022-10-22T04:51:23.314Z,96878.09
2022-10-22T04:53:51.878Z,96884.78
2022-10-22T04:56:21.553Z,96877.31
2022-10-22T04:58:50.404Z,96874.13
2022-10-22T05:01:21.420Z,96876.53
2022-10-22T05:03:52.650Z,96875.53
2022-10-22T05:06:21.528Z,96885.38
2022-10-22T05:08:49.989Z,96890.75
2022-10-22T05:11:19.829Z,96890.75
2022-10-22T05:13:48.423Z,96892.19
2022-10-22T05:16:16.619Z,96912.34
2022-10-22T05:18:46.350Z,96907.72
2022-10-22T05:21:17.065Z,96914.41
2022-10-22T05:23:46.439Z,96912.44
2022-10-22T05:26:16.362Z,96915.66
2022-10-22T05:28:44.392Z,96916.66
2022-10-22T05:31:13.688Z,96924.09
2022-10-22T05:33:42.196Z,96918.22
2022-10-22T05:36:14.338Z,96918.84
2022-10-22T05:38:42.389Z,96923.22
2022-10-22T05:41:12.158Z,96922.94
2022-10-22T05:43:40.507Z,96911.00
2022-10-22T05:46:09.502Z,96892.28
2022-10-22T05:48:37.732Z,96909.66
2022-10-22T05:51:06.980Z,96929.00
2022-10-22T05:53:37.782Z,96932.97
2022-10-22T05:56:08.102Z,96931.72
2022-10-22T05:58:36.533Z,96934.09
2022-10-22T06:01:05.414Z,96938.41
2022-10-22T06:03:33.455Z,96941.91
2022-10-22T06:06:02.574Z,96951.44
2022-10-22T06:08:31.353Z,96945.44
2022-10-22T06:11:00.912Z,96954.34
2022-10-22T06:13:28.999Z,96958.13
2022-10-22T06:15:57.681Z,96948.94
2022-10-22T06:18:25.655Z,96958.63
2022-10-22T06:20:53.620Z,96964.66
2022-10-22T06:23:21.595Z,96957.84
2022-10-22T06:25:57.508Z,96959.72
2022-10-22T06:28:27.079Z,96967.97
2022-10-22T06:30:55.158Z,96962.44
2022-10-22T06:33:23.149Z,96949.41
2022-10-22T06:35:51.152Z,96957.97
2022-10-22T06:38:19.094Z,96949.56
2022-10-22T06:40:47.167Z,96958.94
2022-10-22T06:43:15.759Z,96961.78
2022-10-22T06:45:45.072Z,96960.84
2022-10-22T06:48:13.110Z,96968.44
2022-10-22T06:50:41.982Z,96973.22
2022-10-22T06:53:09.981Z,96990.53
2022-10-22T06:55:38.066Z,97000.22
2022-10-22T06:58:30.773Z,97000.22
2022-10-22T07:01:04.670Z,97014.03
2022-10-22T07:03:32.735Z,97033.88
2022-10-22T07:06:01.945Z,97037.19
2022-10-22T07:08:30.545Z,97031.16
2022-10-22T07:11:07.201Z,97040.88
2022-10-22T07:13:35.384Z,97045.13
2022-10-22T07:16:05.275Z,97050.22
2022-10-22T07:18:34.017Z,97058.47
2022-10-22T07:21:02.225Z,97077.66
2022-10-22T07:23:30.489Z,97066.44
2022-10-22T07:25:59.174Z,97066.78
2022-10-22T07:28:28.054Z,97069.31
2022-10-22T07:30:56.214Z,97070.13
2022-10-22T07:33:25.781Z,97070.63
2022-10-22T07:35:58.970Z,97083.47
2022-10-22T07:38:27.078Z,97083.31
2022-10-22T07:40:55.398Z,97078.72
2022-10-22T07:43:23.608Z,97084.13
2022-10-22T07:45:51.695Z,97088.72
2022-10-22T07:48:20.025Z,97086.31
2022-10-22T07:50:50.300Z,97093.31
2022-10-22T07:53:18.336Z,97095.38
2022-10-22T07:55:49.259Z,97101.28
2022-10-22T07:58:17.316Z,97096.66
2022-10-22T08:00:45.588Z,97098.28
2022-10-22T08:03:14.762Z,97107.63
2022-10-22T08:05:43.804Z,97099.06
2022-10-22T08:08:14.035Z,97117.97
2022-10-22T08:10:42.334Z,97122.88
2022-10-22T08:13:10.341Z,97123.81
2022-10-22T08:15:38.419Z,97120.19
2022-10-22T08:18:06.727Z,97118.81
2022-10-22T08:20:34.706Z,97116.91
2022-10-22T08:23:02.769Z,97112.00
2022-10-22T08:25:32.247Z,97107.91
2022-10-22T08:28:00.309Z,97107.16
2022-10-22T08:30:29.805Z,97121.00
2022-10-22T08:32:58.140Z,97123.56
2022-10-22T08:35:26.131Z,97123.88
2022-10-22T08:37:54.144Z,97137.28
2022-10-22T08:40:26.022Z,97125.03
2022-10-22T08:43:14.466Z,97125.34
2022-10-22T08:45:45.169Z,97136.19
2022-10-22T08:48:24.813Z,97139.53
2022-10-22T08:50:54.016Z,97138.25
2022-10-22T08:53:26.276Z,97147.03
2022-10-22T08:55:55.059Z,97150.69
2022-10-22T08:58:29.482Z,97150.97
2022-10-22T09:01:01.163Z,97151.94
2022-10-22T09:03:37.297Z,97150.03
2022-10-22T09:06:10.915Z,97156.22
2022-10-22T09:08:40.240Z,97150.03
2022-10-22T09:11:15.154Z,97165.94
2022-10-22T09:13:46.292Z,97178.81
2022-10-22T09:16:18.124Z,97177.69
2022-10-22T09:19:01.675Z,97178.97
2022-10-22T09:21:35.722Z,97185.81
2022-10-22T09:24:12.332Z,97177.69
2022-10-22T09:26:41.883Z,97188.50
2022-10-22T09:29:16.060Z,97184.41
2022-10-22T09:31:44.199Z,97183.31
2022-10-22T09:34:15.420Z,97193.34
2022-10-22T09:36:43.417Z,97197.34
2022-10-22T09:39:23.848Z,97201.59
2022-10-22T09:41:51.857Z,97202.03
2022-10-22T09:44:21.503Z,97200.78
2022-10-22T09:46:49.483Z,97198.28
2022-10-22T09:49:19.349Z,97201.94
2022-10-22T09:51:54.428Z,97203.69
2022-10-22T09:54:25.385Z,97205.16
2022-10-22T09:56:56.914Z,97205.63
2022-10-22T09:59:31.694Z,97210.59
2022-10-22T10:02:19.752Z,97207.72
2022-10-22T10:04:58.114Z,97207.75
2022-10-22T10:07:27.863Z,97213.16
2022-10-22T10:09:56.081Z,97215.06
2022-10-22T10:12:34.817Z,97209.66
2022-10-22T10:15:13.105Z,97217.91
2022-10-22T10:17:45.185Z,97223.34
2022-10-22T10:20:25.520Z,97226.03
2022-10-22T10:22:59.020Z,97219.03
2022-10-22T10:25:39.714Z,97220.81
2022-10-22T10:28:21.609Z,97205.66
2022-10-22T10:30:56.148Z,97203.59
2022-10-22T10:33:31.332Z,97198.50
2022-10-22T10:36:04.714Z,97203.13
2022-10-22T10:38:53.050Z,97192.75
2022-10-22T10:41:26.862Z,97198.00
2022-10-22T10:44:13.038Z,97211.88
2022-10-22T10:46:47.532Z,97208.69
2022-10-22T10:49:20.110Z,97214.41
2022-10-22T10:51:55.016Z,97208.84
2022-10-22T10:54:39.968Z,97212.50
2022-10-22T10:57:18.134Z,97206.13
2022-10-22T10:59:57.866Z,97209.00
2022-10-22T11:02:47.499Z,97206.31
2022-10-22T11:05:23.504Z,97216.81
2022-10-22T11:07:56.368Z,97215.53
2022-10-22T11:10:30.506Z,97216.66
2022-10-22T11:13:03.179Z,97210.75
2022-10-22T11:15:34.303Z,97215.03
2022-10-22T11:18:09.521Z,97209.97
2022-10-22T11:20:45.795Z,97198.50
2022-10-22T11:23:20.413Z,97201.34
2022-10-22T11:25:50.571Z,97197.06
2022-10-22T11:28:22.435Z,97202.00
2022-10-22T11:30:55.168Z,97201.84
2022-10-22T11:33:26.249Z,97201.00
2022-10-22T11:35:54.428Z,97203.56
2022-10-22T11:38:26.511Z,97199.91
2022-10-22T11:41:00.013Z,97201.66
2022-10-22T11:43:30.811Z,97195.91
2022-10-22T11:46:03.027Z,97201.53
2022-10-22T11:48:38.584Z,97195.91
2022-10-22T11:51:30.452Z,97196.41
2022-10-22T11:53:59.710Z,97184.78
2022-10-22T11:56:28.713Z,97187.63
2022-10-22T11:58:57.035Z,97184.91
2022-10-22T12:01:27.669Z,97190.16
2022-10-22T12:04:19.615Z,97191.25
2022-10-22T12:06:56.625Z,97188.25
2022-10-22T12:09:26.128Z,97179.34
2022-10-22T12:11:54.122Z,97181.41
2022-10-22T12:14:26.646Z,97190.59
2022-10-22T12:16:57.966Z,97186.13
2022-10-22T12:19:30.148Z,97193.59
2022-10-22T12:22:00.118Z,97188.00
2022-10-22T12:24:33.770Z,97181.47
2022-10-22T12:27:01.761Z,97184.66
2022-10-22T12:29:32.919Z,97180.03
2022-10-22T12:32:04.441Z,97177.44
2022-10-22T12:34:33.845Z,97177.63
2022-10-22T12:37:05.984Z,97177.28
2022-10-22T12:39:35.444Z,97172.97
2022-10-22T12:42:06.201Z,97161.69
2022-10-22T12:44:34.502Z,97158.66
2022-10-22T12:47:02.533Z,97163.78
2022-10-22T12:49:37.820Z,97162.97
2022-10-22T12:52:10.965Z,97158.34
2022-10-22T12:54:41.813Z,97154.00
2022-10-22T12:57:14.740Z,97156.69
2022-10-22T12:59:47.229Z,97157.47
2022-10-22T13:02:21.378Z,97152.97
2022-10-22T13:05:23.080Z,97151.56
2022-10-22T13:07:52.795Z,97150.75
2022-10-22T13:10:25.448Z,97147.34
2022-10-22T13:12:57.035Z,97146.44
2022-10-22T13:15:36.670Z,97141.28
2022-10-22T13:18:07.492Z,97142.69
2022-10-22T13:20:38.537Z,97145.59
2022-10-22T13:23:07.435Z,97139.78
2022-10-22T13:25:37.311Z,97142.31
2022-10-22T13:28:19.568Z,97137.69
2022-10-22T13:30:54.524Z,97137.63
2022-10-22T13:33:26.670Z,97134.38
2022-10-22T13:35:56.740Z,97141.38
2022-10-22T13:38:26.129Z,97141.09
2022-10-22T13:40:54.792Z,97137.91
2022-10-22T13:43:22.886Z,97141.78
2022-10-22T13:45:54.414Z,97139.22
2022-10-22T13:48:23.687Z,97149.72
2022-10-22T13:50:52.110Z,97148.59
2022-10-22T13:53:23.380Z,97148.59
2022-10-22T13:55:51.373Z,97146.00
2022-10-22T13:58:21.164Z,97152.22
2022-10-22T14:00:51.317Z,97144.63
2022-10-22T14:03:21.852Z,97147.59
2022-10-22T14:05:50.230Z,97155.84
2022-10-22T14:08:21.244Z,97151.38
2022-10-22T14:10:49.578Z,97144.16
2022-10-22T14:13:18.705Z,97148.50
2022-10-22T14:15:47.972Z,97152.78
2022-10-22T14:18:24.090Z,97151.22
2022-10-22T14:20:53.973Z,97145.38
2022-10-22T14:23:24.603Z,97153.19
2022-10-22T14:25:52.841Z,97155.00
2022-10-22T14:28:21.050Z,97156.00
2022-10-22T14:30:49.249Z,97159.53
2022-10-22T14:33:18.904Z,97159.53
2022-10-22T14:35:47.142Z,97158.91
2022-10-22T14:38:15.503Z,97163.91
2022-10-22T14:40:45.380Z,97167.09
2022-10-22T14:43:14.082Z,97172.13
2022-10-22T14:45:42.039Z,97166.28
2022-10-22T14:48:10.073Z,97173.28
2022-10-22T14:50:38.176Z,97173.75
2022-10-22T14:53:06.274Z,97169.19
2022-10-22T14:55:34.297Z,97161.78
2022-10-22T14:58:03.843Z,97163.66
2022-10-22T15:00:32.023Z,97170.06
2022-10-22T15:03:03.343Z,97168.81
2022-10-22T15:05:32.422Z,97176.91
2022-10-22T15:08:00.523Z,97173.66
2022-10-22T15:10:28.616Z,97174.38
2022-10-22T15:12:56.618Z,97172.16
2022-10-22T15:15:30.498Z,97171.94
2022-10-22T15:18:03.429Z,97175.06
2022-10-22T15:20:31.567Z,97172.94
2022-10-22T15:22:59.620Z,97180.94
2022-10-22T15:25:28.678Z,97181.91
2022-10-22T15:28:00.745Z,97178.06
2022-10-22T15:30:36.848Z,97185.47
2022-10-22T15:33:05.004Z,97190.63
2022-10-22T15:35:33.001Z,97185.34
2022-10-22T15:38:01.217Z,97192.50
2022-10-22T15:40:29.306Z,97191.00
2022-10-22T15:42:57.404Z,97183.34
2022-10-22T15:45:25.781Z,97189.56
2022-10-22T15:47:55.235Z,97189.41
2022-10-22T15:50:23.261Z,97196.31
2022-10-22T15:52:51.357Z,97204.81
2022-10-22T15:55:19.557Z,97205.34
2022-10-22T15:57:47.966Z,97209.06
2022-10-22T16:00:16.757Z,97211.50
2022-10-22T16:02:44.730Z,97214.56
2022-10-22T16:05:14.240Z,97216.03
2022-10-22T16:07:42.974Z,97214.75
2022-10-22T16:10:12.870Z,97217.34
2022-10-22T16:12:42.539Z,97223.78
2022-10-22T16:15:11.573Z,97215.03
2022-10-22T16:17:39.587Z,97215.09
2022-10-22T16:20:08.524Z,97214.22
2022-10-22T16:22:38.096Z,97219.66
2022-10-22T16:25:07.133Z,97228.47
2022-10-22T16:27:35.164Z,97229.91
2022-10-22T16:30:03.258Z,97222.75
2022-10-22T16:32:31.665Z,97226.13
2022-10-22T16:34:59.772Z,97223.28
2022-10-22T16:37:27.823Z,97230.00
2022-10-22T16:39:57.205Z,97238.34
2022-10-22T16:42:25.248Z,97228.81
2022-10-22T16:44:53.397Z,97242.53
2022-10-22T16:47:21.440Z,97242.25
2022-10-22T16:49:49.436Z,97248.16
2022-10-22T16:52:17.389Z,97251.88
2022-10-22T16:54:46.745Z,97259.53
2022-10-22T16:57:16.148Z,97262.41
2022-10-22T16:59:44.117Z,97272.31
2022-10-22T17:02:12.338Z,97268.66
2022-10-22T17:04:40.282Z,97277.28
2022-10-22T17:07:08.251Z,97275.56
2022-10-22T17:09:36.314Z,97279.53
2022-10-22T17:12:04.788Z,97278.56
2022-10-22T17:14:34.174Z,97280.34
2022-10-22T17:17:02.138Z,97293.25
2022-10-22T17:19:30.210Z,97284.50
2022-10-22T17:21:58.219Z,97285.28
2022-10-22T17:24:26.233Z,97289.44
2022-10-22T17:26:54.416Z,97293.06
2022-10-22T17:29:22.810Z,97289.41
2022-10-22T17:31:52.601Z,97295.00
2022-10-22T17:34:20.599Z,97296.91
2022-10-22T17:36:48.688Z,97294.19
2022-10-22T17:39:18.761Z,97300.56
2022-10-22T17:41:47.031Z,97296.88
2022-10-22T17:44:16.872Z,97309.63
2022-10-22T17:46:45.313Z,97298.44
2022-10-22T17:49:19.481Z,97306.72
2022-10-22T17:51:48.189Z,97309.56
2022-10-22T17:54:16.189Z,97310.38
2022-10-22T17:56:44.334Z,97305.44
2022-10-22T17:59:15.850Z,97308.75
2022-10-22T18:01:45.784Z,97307.94
2022-10-22T18:04:18.304Z,97317.50
2022-10-22T18:06:47.170Z,97324.16
2022-10-22T18:09:18.309Z,97321.59
2022-10-22T18:11:47.320Z,97317.75
2022-10-22T18:14:15.661Z,97321.69
2022-10-22T18:16:43.705Z,97319.31
2022-10-22T18:19:12.351Z,97317.00
2022-10-22T18:21:41.703Z,97325.56
2022-10-22T18:24:11.194Z,97323.19
2022-10-22T18:26:39.188Z,97330.00
2022-10-22T18:29:07.176Z,97329.97
2022-10-22T18:31:35.205Z,97326.28
2022-10-22T18:34:03.201Z,97327.53
2022-10-22T18:36:31.255Z,97325.16
2022-10-22T18:39:01.848Z,97327.34
2022-10-22T18:41:31.121Z,97327.50
2022-10-22T18:44:00.288Z,97335.91
2022-10-22T18:46:33.670Z,97339.53
2022-10-22T18:49:02.291Z,97338.53
2022-10-22T18:51:32.610Z,97324.03
2022-10-22T18:54:22.272Z,97331.66
2022-10-22T18:56:51.357Z,97334.47
2022-10-22T18:59:21.161Z,97333.50
2022-10-22T19:01:49.504Z,97326.94
2022-10-22T19:04:17.524Z,97328.66
2022-10-22T19:06:46.045Z,97329.25
2022-10-22T19:09:16.259Z,97336.59
2022-10-22T19:11:44.704Z,97330.38
2022-10-22T19:14:13.966Z,97332.09
2022-10-22T19:16:41.960Z,97342.88
2022-10-22T19:19:09.967Z,97340.00
2022-10-22T19:21:38.670Z,97339.84
2022-10-22T19:24:07.515Z,97337.84
2022-10-22T19:26:36.919Z,97330.28
2022-10-22T19:29:05.353Z,97327.69
2022-10-22T19:31:33.798Z,97334.66
2022-10-22T19:34:02.819Z,97336.28
2022-10-22T19:36:32.624Z,97333.69
2022-10-22T19:39:00.875Z,97338.41
2022-10-22T19:41:30.481Z,97330.09
2022-10-22T19:44:00.993Z,97343.69
2022-10-22T19:46:32.454Z,97335.09
2022-10-22T19:49:00.776Z,97330.28
2022-10-22T19:51:30.758Z,97323.91
2022-10-22T19:54:00.148Z,97328.31
2022-10-22T19:56:28.868Z,97319.22
2022-10-22T19:58:56.936Z,97325.25
2022-10-22T20:01:27.407Z,97328.22
2022-10-22T20:03:55.639Z,97327.94
2022-10-22T20:06:23.705Z,97327.44
2022-10-22T20:08:55.221Z,97321.56
2022-10-22T20:11:26.235Z,97326.94
2022-10-22T20:13:54.653Z,97328.03
2022-10-22T20:16:24.365Z,97332.63
2022-10-22T20:18:53.882Z,97326.75
2022-10-22T20:21:22.306Z,97334.75
2022-10-22T20:23:54.116Z,97342.50
2022-10-22T20:26:47.327Z,97336.41
2022-10-22T20:29:16.006Z,97337.63
2022-10-22T20:31:44.247Z,97335.31
2022-10-22T20:34:13.637Z,97331.84
2022-10-22T20:36:41.660Z,97340.72
2022-10-22T20:39:12.555Z,97340.53
2022-10-22T20:41:41.036Z,97341.91
2022-10-22T20:44:12.374Z,97346.09
2022-10-22T20:46:40.448Z,97348.91
2022-10-22T20:49:10.990Z,97338.13
2022-10-22T20:51:40.516Z,97342.50
2022-10-22T20:54:09.277Z,97345.78
2022-10-22T20:56:38.181Z,97346.88
2022-10-22T20:59:08.224Z,97343.28
2022-10-22T21:01:38.039Z,97354.66
2022-10-22T21:04:06.753Z,97352.63
2022-10-22T21:06:37.930Z,97359.03
2022-10-22T21:09:08.827Z,97362.00
2022-10-22T21:11:37.177Z,97355.81
2022-10-22T21:14:06.105Z,97357.19
2022-10-22T21:16:34.636Z,97350.81
2022-10-22T21:19:03.051Z,97363.19
2022-10-22T21:21:31.110Z,97356.50
2022-10-22T21:23:59.096Z,97357.19
2022-10-22T21:26:28.507Z,97356.38
2022-10-22T21:28:56.473Z,97349.41
2022-10-22T21:31:26.220Z,97341.59
2022-10-22T21:33:54.796Z,97330.41
2022-10-22T21:36:23.688Z,97335.78
2022-10-22T21:38:52.559Z,97331.00
2022-10-22T21:41:22.416Z,97335.88
2022-10-22T21:43:52.289Z,97333.19
2022-10-22T21:46:21.396Z,97338.56
2022-10-22T21:48:53.923Z,97331.06
2022-10-22T21:51:22.983Z,97333.19
2022-10-22T21:56:22.285Z,97326.19
2022-10-22T21:58:51.704Z,97328.38
2022-10-22T22:01:19.809Z,97335.38
2022-10-22T22:03:49.902Z,97338.88
2022-10-22T22:06:21.355Z,97336.97
2022-10-22T22:08:51.013Z,97342.94
2022-10-22T22:11:20.655Z,97342.13
2022-10-22T22:13:49.338Z,97338.63
2022-10-22T22:16:22.527Z,97335.38
2022-10-22T22:18:53.925Z,97332.72
2022-10-22T22:21:23.074Z,97336.53
2022-10-22T22:23:51.757Z,97332.91
2022-10-22T22:26:25.374Z,97338.16
2022-10-22T22:28:56.501Z,97330.91
2022-10-22T22:31:28.182Z,97330.91
2022-10-22T22:33:59.674Z,97326.00
2022-10-22T22:36:27.701Z,97333.28
2022-10-22T22:38:56.421Z,97328.25
2022-10-22T22:41:24.493Z,97332.06
2022-10-22T22:43:52.542Z,97327.75
2022-10-22T22:46:20.540Z,97338.00
2022-10-22T22:48:50.362Z,97325.66
2022-10-22T22:51:18.734Z,97339.19
2022-10-22T22:54:12.318Z,97332.19
2022-10-22T22:56:40.945Z,97321.34
2022-10-22T22:59:08.921Z,97317.38
2022-10-22T23:01:38.717Z,97317.13
2022-10-22T23:04:12.220Z,97310.66
2022-10-22T23:06:40.745Z,97307.91
2022-10-22T23:09:11.652Z,97312.72
2022-10-22T23:11:40.500Z,97318.09
2022-10-22T23:14:09.684Z,97314.88
2022-10-22T23:16:41.094Z,97323.84
2022-10-22T23:19:11.285Z,97307.63
2022-10-22T23:21:41.089Z,97302.53
2022-10-22T23:24:12.450Z,97309.50
2022-10-22T23:26:42.468Z,97294.97
2022-10-22T23:29:13.172Z,97287.69
2022-10-22T23:31:41.441Z,97285.81
2022-10-22T23:34:11.984Z,97287.41
2022-10-22T23:36:40.525Z,97287.19
2022-10-22T23:39:10.427Z,97280.44
2022-10-22T23:41:38.684Z,97278.81
2022-10-22T23:44:07.273Z,97277.22
2022-10-22T23:46:35.660Z,97279.44
2022-10-22T23:49:03.723Z,97270.25
2022-10-22T23:51:33.032Z,97268.16
2022-10-22T23:54:02.716Z,97267.88
2022-10-22T23:56:31.258Z,97264.38
2022-10-22T23:58:59.510Z,97266.84
